sensor_id;sensor_type;location;lat;lon;timestamp;pressure;altitude;pressure_sealevel;temperature;humidity
21520;BME280;10921;53.614;9.882;2022-08-21T00:02:00;101426.69;;;14.38;84.84
21520;BME280;10921;53.614;9.882;2022-08-21T00:04:27;101425.00;;;14.37;84.73
21520;BME280;10921;53.614;9.882;2022-08-21T00:06:56;101402.06;;;14.25;85.11
21520;BME280;10921;53.614;9.882;2022-08-21T00:09:23;101427.03;;;14.35;85.07
21520;BME280;10921;53.614;9.882;2022-08-21T00:11:49;101419.41;;;14.31;85.19
21520;BME280;10921;53.614;9.882;2022-08-21T00:14:16;101418.28;;;14.33;85.55
21520;BME280;10921;53.614;9.882;2022-08-21T00:16:43;101420.97;;;14.33;85.30
21520;BME280;10921;53.614;9.882;2022-08-21T00:19:09;101408.53;;;14.32;85.19
21520;BME280;10921;53.614;9.882;2022-08-21T00:21:36;101412.06;;;14.33;85.52
21520;BME280;10921;53.614;9.882;2022-08-21T00:24:03;101408.53;;;14.32;85.79
21520;BME280;10921;53.614;9.882;2022-08-21T00:26:29;101404.00;;;14.33;85.59
21520;BME280;10921;53.614;9.882;2022-08-21T00:28:56;101399.47;;;14.33;86.06
21520;BME280;10921;53.614;9.882;2022-08-21T00:31:24;101386.66;;;14.27;85.98
21520;BME280;10921;53.614;9.882;2022-08-21T00:33:51;101405.84;;;14.32;86.19
21520;BME280;10921;53.614;9.882;2022-08-21T00:36:23;101395.31;;;14.21;86.15
21520;BME280;10921;53.614;9.882;2022-08-21T00:38:49;101402.47;;;14.30;86.19
21520;BME280;10921;53.614;9.882;2022-08-21T00:41:16;101398.09;;;14.29;85.98
21520;BME280;10921;53.614;9.882;2022-08-21T00:44:03;101386.25;;;14.22;86.01
21520;BME280;10921;53.614;9.882;2022-08-21T00:46:30;101399.09;;;14.28;86.13
21520;BME280;10921;53.614;9.882;2022-08-21T00:48:57;101402.63;;;14.29;86.65
21520;BME280;10921;53.614;9.882;2022-08-21T00:51:38;101402.75;;;14.27;86.84
21520;BME280;10921;53.614;9.882;2022-08-21T00:54:07;101373.22;;;14.09;85.98
21520;BME280;10921;53.614;9.882;2022-08-21T00:56:46;101396.16;;;14.22;86.14
21520;BME280;10921;53.614;9.882;2022-08-21T00:59:13;101401.00;;;14.18;86.06
21520;BME280;10921;53.614;9.882;2022-08-21T01:01:40;101403.53;;;14.20;86.83
21520;BME280;10921;53.614;9.882;2022-08-21T01:04:07;101403.69;;;14.18;86.66
21520;BME280;10921;53.614;9.882;2022-08-21T01:06:33;101396.81;;;14.06;86.72
21520;BME280;10921;53.614;9.882;2022-08-21T01:09:02;101407.50;;;14.16;87.29
21520;BME280;10921;53.614;9.882;2022-08-21T01:11:29;101384.88;;;14.00;87.38
21520;BME280;10921;53.614;9.882;2022-08-21T01:13:56;101406.97;;;14.12;87.31
21520;BME280;10921;53.614;9.882;2022-08-21T01:16:22;101410.63;;;14.11;87.46
21520;BME280;10921;53.614;9.882;2022-08-21T01:18:50;101398.34;;;14.08;87.85
21520;BME280;10921;53.614;9.882;2022-08-21T01:21:23;101405.41;;;14.09;87.89
21520;BME280;10921;53.614;9.882;2022-08-21T01:23:56;101408.09;;;14.09;87.55
21520;BME280;10921;53.614;9.882;2022-08-21T01:26:27;101401.88;;;14.09;87.65
21520;BME280;10921;53.614;9.882;2022-08-21T01:29:07;101403.72;;;14.08;87.89
21520;BME280;10921;53.614;9.882;2022-08-21T01:31:36;101404.72;;;14.07;87.83
21520;BME280;10921;53.614;9.882;2022-08-21T01:34:04;101408.56;;;14.05;87.31
21520;BME280;10921;53.614;9.882;2022-08-21T01:36:31;101396.75;;;13.98;87.26
21520;BME280;10921;53.614;9.882;2022-08-21T01:38:57;101411.00;;;13.98;87.65
21520;BME280;10921;53.614;9.882;2022-08-21T01:41:24;101406.47;;;13.99;87.90
21520;BME280;10921;53.614;9.882;2022-08-21T01:43:51;101402.69;;;13.92;87.40
21520;BME280;10921;53.614;9.882;2022-08-21T01:46:17;101399.50;;;13.88;87.02
21520;BME280;10921;53.614;9.882;2022-08-21T01:48:44;101403.00;;;13.89;86.75
21520;BME280;10921;53.614;9.882;2022-08-21T01:51:11;101408.53;;;13.87;86.63
21520;BME280;10921;53.614;9.882;2022-08-21T01:53:39;101385.03;;;13.71;86.73
21520;BME280;10921;53.614;9.882;2022-08-21T01:56:08;101406.28;;;13.83;86.92
21520;BME280;10921;53.614;9.882;2022-08-21T01:58:39;101411.94;;;13.80;86.66
21520;BME280;10921;53.614;9.882;2022-08-21T02:01:08;101401.22;;;13.80;87.17
21520;BME280;10921;53.614;9.882;2022-08-21T02:03:36;101406.88;;;13.77;86.87
21520;BME280;10921;53.614;9.882;2022-08-21T02:06:04;101403.50;;;13.75;87.33
21520;BME280;10921;53.614;9.882;2022-08-21T02:08:33;101384.63;;;13.66;87.27
21520;BME280;10921;53.614;9.882;2022-08-21T02:11:00;101358.88;;;13.46;87.88
21520;BME280;10921;53.614;9.882;2022-08-21T02:13:26;101353.50;;;13.46;88.08
21520;BME280;10921;53.614;9.882;2022-08-21T02:15:53;101397.59;;;13.71;87.99
21520;BME280;10921;53.614;9.882;2022-08-21T02:18:19;101396.19;;;13.67;87.99
21520;BME280;10921;53.614;9.882;2022-08-21T02:20:48;101398.72;;;13.68;87.87
21520;BME280;10921;53.614;9.882;2022-08-21T02:23:22;101398.03;;;13.66;87.88
21520;BME280;10921;53.614;9.882;2022-08-21T02:25:56;101399.88;;;13.66;87.76
21520;BME280;10921;53.614;9.882;2022-08-21T02:28:23;101387.34;;;13.57;87.67
21520;BME280;10921;53.614;9.882;2022-08-21T02:30:51;101399.16;;;13.64;87.71
21520;BME280;10921;53.614;9.882;2022-08-21T02:33:19;101400.16;;;13.63;87.66
21520;BME280;10921;53.614;9.882;2022-08-21T02:35:46;101397.47;;;13.63;88.18
21520;BME280;10921;53.614;9.882;2022-08-21T02:38:16;101390.97;;;13.65;88.48
21520;BME280;10921;53.614;9.882;2022-08-21T02:40:44;101389.06;;;13.76;87.45
21520;BME280;10921;53.614;9.882;2022-08-21T02:43:14;101384.63;;;13.66;87.44
21520;BME280;10921;53.614;9.882;2022-08-21T02:45:43;101388.00;;;13.68;88.60
21520;BME280;10921;53.614;9.882;2022-08-21T02:48:13;101392.53;;;13.68;88.36
21520;BME280;10921;53.614;9.882;2022-08-21T02:50:42;101388.16;;;13.67;88.17
21520;BME280;10921;53.614;9.882;2022-08-21T02:53:11;101385.31;;;13.68;88.35
21520;BME280;10921;53.614;9.882;2022-08-21T02:55:40;101391.53;;;13.69;88.46
21520;BME280;10921;53.614;9.882;2022-08-21T02:58:07;101381.78;;;13.68;88.44
21520;BME280;10921;53.614;9.882;2022-08-21T03:00:35;101383.47;;;13.69;88.37
21520;BME280;10921;53.614;9.882;2022-08-21T03:03:04;101383.47;;;13.69;88.46
21520;BME280;10921;53.614;9.882;2022-08-21T03:05:32;101371.50;;;13.63;88.16
21520;BME280;10921;53.614;9.882;2022-08-21T03:08:00;101382.50;;;13.70;88.34
21520;BME280;10921;53.614;9.882;2022-08-21T03:10:28;101381.66;;;13.69;88.14
21520;BME280;10921;53.614;9.882;2022-08-21T03:12:55;101372.91;;;13.67;88.29
21520;BME280;10921;53.614;9.882;2022-08-21T03:15:23;101374.31;;;13.62;88.10
21520;BME280;10921;53.614;9.882;2022-08-21T03:17:52;101379.81;;;13.70;88.27
21520;BME280;10921;53.614;9.882;2022-08-21T03:20:23;101378.13;;;13.69;88.29
21520;BME280;10921;53.614;9.882;2022-08-21T03:22:51;101370.22;;;13.67;88.19
21520;BME280;10921;53.614;9.882;2022-08-21T03:25:20;101365.28;;;13.63;88.49
21520;BME280;10921;53.614;9.882;2022-08-21T03:28:08;101381.66;;;13.69;88.78
21520;BME280;10921;53.614;9.882;2022-08-21T03:30:43;101374.44;;;13.70;88.77
21520;BME280;10921;53.614;9.882;2022-08-21T03:33:10;101378.13;;;13.69;88.75
21520;BME280;10921;53.614;9.882;2022-08-21T03:35:42;101375.59;;;13.67;88.62
21520;BME280;10921;53.614;9.882;2022-08-21T03:38:10;101373.88;;;13.66;88.48
21520;BME280;10921;53.614;9.882;2022-08-21T03:40:36;101371.22;;;13.66;88.65
21520;BME280;10921;53.614;9.882;2022-08-21T03:43:03;101365.84;;;13.66;88.89
21520;BME280;10921;53.614;9.882;2022-08-21T03:45:29;101373.03;;;13.66;88.99
21520;BME280;10921;53.614;9.882;2022-08-21T03:47:57;101376.72;;;13.65;88.82
21520;BME280;10921;53.614;9.882;2022-08-21T03:50:26;101369.53;;;13.65;89.79
21520;BME280;10921;53.614;9.882;2022-08-21T03:52:53;101376.72;;;13.65;89.52
21520;BME280;10921;53.614;9.882;2022-08-21T03:55:19;101368.53;;;13.66;89.50
21520;BME280;10921;53.614;9.882;2022-08-21T03:57:46;101378.41;;;13.66;89.45
21520;BME280;10921;53.614;9.882;2022-08-21T04:00:14;101374.75;;;13.67;89.60
21520;BME280;10921;53.614;9.882;2022-08-21T04:02:42;101348.56;;;13.51;89.37
21520;BME280;10921;53.614;9.882;2022-08-21T04:05:11;101356.31;;;13.54;89.15
21520;BME280;10921;53.614;9.882;2022-08-21T04:07:41;101376.56;;;13.66;89.07
21520;BME280;10921;53.614;9.882;2022-08-21T04:10:08;101380.94;;;13.67;88.99
21520;BME280;10921;53.614;9.882;2022-08-21T04:12:35;101361.06;;;13.60;89.46
21520;BME280;10921;53.614;9.882;2022-08-21T04:15:01;101380.94;;;13.67;89.54
21520;BME280;10921;53.614;9.882;2022-08-21T04:17:28;101355.75;;;13.51;88.98
21520;BME280;10921;53.614;9.882;2022-08-21T04:19:54;101378.56;;;13.64;88.86
21520;BME280;10921;53.614;9.882;2022-08-21T04:22:21;101383.63;;;13.67;89.04
21520;BME280;10921;53.614;9.882;2022-08-21T04:24:48;101345.75;;;13.53;89.17
21520;BME280;10921;53.614;9.882;2022-08-21T04:27:15;101380.66;;;13.70;89.57
21520;BME280;10921;53.614;9.882;2022-08-21T04:29:41;101383.72;;;13.76;89.63
21520;BME280;10921;53.614;9.882;2022-08-21T04:32:07;101386.66;;;13.82;89.86
21520;BME280;10921;53.614;9.882;2022-08-21T04:34:34;101388.75;;;13.88;89.96
21520;BME280;10921;53.614;9.882;2022-08-21T04:37:00;101374.34;;;13.89;90.45
21520;BME280;10921;53.614;9.882;2022-08-21T04:39:27;101376.41;;;13.95;90.51
21520;BME280;10921;53.614;9.882;2022-08-21T04:41:55;101382.25;;;14.08;90.52
21520;BME280;10921;53.614;9.882;2022-08-21T04:44:21;101390.25;;;14.18;90.82
21520;BME280;10921;53.614;9.882;2022-08-21T04:46:48;101388.66;;;14.25;90.68
21520;BME280;10921;53.614;9.882;2022-08-21T04:49:14;101392.44;;;14.32;90.57
21520;BME280;10921;53.614;9.882;2022-08-21T04:51:41;101383.03;;;14.36;90.66
21520;BME280;10921;53.614;9.882;2022-08-21T04:54:11;101397.16;;;14.48;90.39
21520;BME280;10921;53.614;9.882;2022-08-21T04:56:45;101395.50;;;14.55;91.25
21520;BME280;10921;53.614;9.882;2022-08-21T04:59:22;101397.59;;;14.61;90.74
21520;BME280;10921;53.614;9.882;2022-08-21T05:01:51;101395.13;;;14.68;90.33
21520;BME280;10921;53.614;9.882;2022-08-21T05:04:20;101397.88;;;14.76;90.46
21520;BME280;10921;53.614;9.882;2022-08-21T05:06:49;101397.25;;;14.82;90.30
21520;BME280;10921;53.614;9.882;2022-08-21T05:09:18;101396.50;;;14.90;90.30
21520;BME280;10921;53.614;9.882;2022-08-21T05:11:45;101380.91;;;14.93;90.20
21520;BME280;10921;53.614;9.882;2022-08-21T05:14:12;101395.75;;;15.05;90.03
21520;BME280;10921;53.614;9.882;2022-08-21T05:16:39;101394.97;;;15.13;90.16
21520;BME280;10921;53.614;9.882;2022-08-21T05:19:07;101389.97;;;15.18;90.35
21520;BME280;10921;53.614;9.882;2022-08-21T05:21:34;101407.91;;;15.35;90.45
21520;BME280;10921;53.614;9.882;2022-08-21T05:24:01;101412.00;;;15.47;90.72
21520;BME280;10921;53.614;9.882;2022-08-21T05:26:28;101395.78;;;15.57;90.45
21520;BME280;10921;53.614;9.882;2022-08-21T05:28:55;101400.03;;;15.68;90.51
21520;BME280;10921;53.614;9.882;2022-08-21T05:31:22;101400.44;;;15.81;90.49
21520;BME280;10921;53.614;9.882;2022-08-21T05:33:49;101400.28;;;15.91;90.25
21520;BME280;10921;53.614;9.882;2022-08-21T05:36:18;101398.63;;;15.98;89.51
21520;BME280;10921;53.614;9.882;2022-08-21T05:38:45;101400.88;;;16.10;88.81
21520;BME280;10921;53.614;9.882;2022-08-21T05:41:12;101406.09;;;16.20;88.54
21520;BME280;10921;53.614;9.882;2022-08-21T05:43:38;101377.50;;;16.19;87.74
21520;BME280;10921;53.614;9.882;2022-08-21T05:46:07;101402.59;;;16.36;87.41
21520;BME280;10921;53.614;9.882;2022-08-21T05:48:35;101402.97;;;16.49;86.81
21520;BME280;10921;53.614;9.882;2022-08-21T05:51:10;101397.09;;;16.62;87.15
21520;BME280;10921;53.614;9.882;2022-08-21T05:53:37;101400.97;;;16.67;85.80
21520;BME280;10921;53.614;9.882;2022-08-21T05:56:04;101408.22;;;16.83;85.96
21520;BME280;10921;53.614;9.882;2022-08-21T05:58:32;101388.03;;;16.79;84.99
21520;BME280;10921;53.614;9.882;2022-08-21T06:01:00;101414.63;;;17.06;85.00
21520;BME280;10921;53.614;9.882;2022-08-21T06:03:31;101408.72;;;17.19;84.92
21520;BME280;10921;53.614;9.882;2022-08-21T06:05:58;101402.13;;;17.30;85.12
21520;BME280;10921;53.614;9.882;2022-08-21T06:08:25;101406.13;;;17.42;84.61
21520;BME280;10921;53.614;9.882;2022-08-21T06:10:54;101413.16;;;17.59;83.47
21520;BME280;10921;53.614;9.882;2022-08-21T06:13:21;101389.91;;;17.66;83.29
21520;BME280;10921;53.614;9.882;2022-08-21T06:15:49;101412.25;;;17.91;81.23
21520;BME280;10921;53.614;9.882;2022-08-21T06:18:16;101413.19;;;18.06;79.22
21520;BME280;10921;53.614;9.882;2022-08-21T06:20:43;101416.81;;;18.21;78.07
21520;BME280;10921;53.614;9.882;2022-08-21T06:23:10;101410.66;;;18.36;77.62
21520;BME280;10921;53.614;9.882;2022-08-21T06:25:36;101403.00;;;18.47;75.01
21520;BME280;10921;53.614;9.882;2022-08-21T06:28:06;101402.44;;;18.60;74.58
21520;BME280;10921;53.614;9.882;2022-08-21T06:30:33;101400.22;;;18.64;72.96
21520;BME280;10921;53.614;9.882;2022-08-21T06:33:00;101408.81;;;18.82;73.79
21520;BME280;10921;53.614;9.882;2022-08-21T06:35:27;101410.34;;;18.84;69.06
21520;BME280;10921;53.614;9.882;2022-08-21T06:37:56;101405.72;;;18.93;64.47
21520;BME280;10921;53.614;9.882;2022-08-21T06:40:23;101398.88;;;18.97;62.83
21520;BME280;10921;53.614;9.882;2022-08-21T06:42:50;101407.13;;;19.04;62.56
21520;BME280;10921;53.614;9.882;2022-08-21T06:45:16;101404.91;;;19.07;61.25
21520;BME280;10921;53.614;9.882;2022-08-21T06:47:43;101397.25;;;19.11;60.11
21520;BME280;10921;53.614;9.882;2022-08-21T06:50:10;101404.44;;;19.18;60.14
21520;BME280;10921;53.614;9.882;2022-08-21T06:52:37;101396.41;;;19.25;60.21
21520;BME280;10921;53.614;9.882;2022-08-21T06:55:06;101401.41;;;19.36;61.20
21520;BME280;10921;53.614;9.882;2022-08-21T06:57:33;101391.50;;;19.43;60.09
21520;BME280;10921;53.614;9.882;2022-08-21T06:59:59;101393.78;;;19.54;60.19
21520;BME280;10921;53.614;9.882;2022-08-21T07:02:26;101390.41;;;19.67;57.94
21520;BME280;10921;53.614;9.882;2022-08-21T07:04:52;101382.09;;;19.83;57.85
21520;BME280;10921;53.614;9.882;2022-08-21T07:07:19;101385.22;;;20.01;56.95
21520;BME280;10921;53.614;9.882;2022-08-21T07:09:45;101379.19;;;20.21;56.67
21520;BME280;10921;53.614;9.882;2022-08-21T07:12:12;101365.13;;;20.32;56.32
21520;BME280;10921;53.614;9.882;2022-08-21T07:14:39;101366.78;;;20.48;55.76
21520;BME280;10921;53.614;9.882;2022-08-21T07:17:05;101366.09;;;20.60;55.74
21520;BME280;10921;53.614;9.882;2022-08-21T07:19:32;101369.13;;;20.72;55.72
21520;BME280;10921;53.614;9.882;2022-08-21T07:22:01;101362.50;;;20.81;55.03
21520;BME280;10921;53.614;9.882;2022-08-21T07:24:28;101366.81;;;20.97;54.99
21520;BME280;10921;53.614;9.882;2022-08-21T07:26:55;101370.66;;;21.09;54.57
21520;BME280;10921;53.614;9.882;2022-08-21T07:29:21;101372.88;;;21.20;54.86
21520;BME280;10921;53.614;9.882;2022-08-21T07:31:48;101376.06;;;21.30;54.69
21520;BME280;10921;53.614;9.882;2022-08-21T07:34:16;101371.28;;;21.39;54.14
21520;BME280;10921;53.614;9.882;2022-08-21T07:36:42;101364.28;;;21.51;54.66
21520;BME280;10921;53.614;9.882;2022-08-21T07:39:09;101362.88;;;21.62;55.16
21520;BME280;10921;53.614;9.882;2022-08-21T07:41:35;101368.97;;;21.70;54.66
21520;BME280;10921;53.614;9.882;2022-08-21T07:44:02;101363.56;;;21.77;53.88
21520;BME280;10921;53.614;9.882;2022-08-21T07:46:31;101368.22;;;21.90;53.65
21520;BME280;10921;53.614;9.882;2022-08-21T07:48:58;101364.09;;;22.00;53.77
21520;BME280;10921;53.614;9.882;2022-08-21T07:51:26;101353.06;;;22.08;54.30
21520;BME280;10921;53.614;9.882;2022-08-21T07:53:56;101360.00;;;22.24;54.37
21520;BME280;10921;53.614;9.882;2022-08-21T07:56:23;101359.22;;;22.50;54.20
21520;BME280;10921;53.614;9.882;2022-08-21T07:58:50;101361.28;;;22.48;54.03
21520;BME280;10921;53.614;9.882;2022-08-21T08:01:17;101369.47;;;22.55;53.89
21520;BME280;10921;53.614;9.882;2022-08-21T08:03:43;101346.03;;;22.54;54.58
21520;BME280;10921;53.614;9.882;2022-08-21T08:06:11;101355.91;;;22.74;53.61
21520;BME280;10921;53.614;9.882;2022-08-21T08:08:42;101366.38;;;22.77;53.36
21520;BME280;10921;53.614;9.882;2022-08-21T08:11:10;101354.66;;;22.77;52.71
21520;BME280;10921;53.614;9.882;2022-08-21T08:13:42;101366.19;;;22.86;53.77
21520;BME280;10921;53.614;9.882;2022-08-21T08:16:09;101362.19;;;22.88;53.54
21520;BME280;10921;53.614;9.882;2022-08-21T08:18:36;101365.31;;;22.92;53.89
21520;BME280;10921;53.614;9.882;2022-08-21T08:21:04;101361.78;;;22.91;53.81
21520;BME280;10921;53.614;9.882;2022-08-21T08:23:31;101354.03;;;22.88;53.77
21520;BME280;10921;53.614;9.882;2022-08-21T08:25:58;101358.41;;;22.96;54.73
21520;BME280;10921;53.614;9.882;2022-08-21T08:28:25;101356.75;;;23.01;54.25
21520;BME280;10921;53.614;9.882;2022-08-21T08:30:53;101355.69;;;23.09;53.57
21520;BME280;10921;53.614;9.882;2022-08-21T08:33:19;101356.53;;;23.16;53.64
21520;BME280;10921;53.614;9.882;2022-08-21T08:35:48;101353.13;;;23.27;53.57
21520;BME280;10921;53.614;9.882;2022-08-21T08:38:17;101358.56;;;23.40;52.80
21520;BME280;10921;53.614;9.882;2022-08-21T08:41:17;101356.66;;;23.54;53.68
21520;BME280;10921;53.614;9.882;2022-08-21T08:43:52;101343.03;;;23.47;52.30
21520;BME280;10921;53.614;9.882;2022-08-21T08:46:27;101355.59;;;23.62;52.15
21520;BME280;10921;53.614;9.882;2022-08-21T08:48:59;101351.63;;;23.64;52.03
21520;BME280;10921;53.614;9.882;2022-08-21T08:51:53;101353.25;;;23.72;52.50
21520;BME280;10921;53.614;9.882;2022-08-21T08:54:39;101331.50;;;23.65;52.55
21520;BME280;10921;53.614;9.882;2022-08-21T08:57:14;101330.88;;;23.63;52.38
21520;BME280;10921;53.614;9.882;2022-08-21T08:59:47;101348.19;;;23.82;54.03
21520;BME280;10921;53.614;9.882;2022-08-21T09:02:16;101344.78;;;23.87;52.27
21520;BME280;10921;53.614;9.882;2022-08-21T09:04:45;101356.94;;;23.97;52.75
21520;BME280;10921;53.614;9.882;2022-08-21T09:07:19;101341.69;;;24.21;53.67
21520;BME280;10921;53.614;9.882;2022-08-21T09:15:50;101342.47;;;24.35;51.65
21520;BME280;10921;53.614;9.882;2022-08-21T09:21:11;101336.44;;;24.58;51.70
21520;BME280;10921;53.614;9.882;2022-08-21T09:23:53;101334.66;;;24.70;50.80
21520;BME280;10921;53.614;9.882;2022-08-21T09:26:36;101335.81;;;24.80;48.93
21520;BME280;10921;53.614;9.882;2022-08-21T09:29:06;101329.59;;;24.98;49.18
21520;BME280;10921;53.614;9.882;2022-08-21T09:31:37;101335.84;;;25.23;49.26
21520;BME280;10921;53.614;9.882;2022-08-21T09:34:07;101336.25;;;25.45;48.59
21520;BME280;10921;53.614;9.882;2022-08-21T09:39:11;101329.91;;;26.30;47.87
21520;BME280;10921;53.614;9.882;2022-08-21T09:41:39;101328.09;;;26.65;46.12
21520;BME280;10921;53.614;9.882;2022-08-21T09:44:07;101327.31;;;27.00;45.15
21520;BME280;10921;53.614;9.882;2022-08-21T09:46:34;101327.88;;;27.37;43.93
21520;BME280;10921;53.614;9.882;2022-08-21T09:49:03;101322.16;;;27.61;43.67
21520;BME280;10921;53.614;9.882;2022-08-21T09:51:50;101321.56;;;27.88;43.97
21520;BME280;10921;53.614;9.882;2022-08-21T09:54:18;101322.00;;;27.96;42.37
21520;BME280;10921;53.614;9.882;2022-08-21T09:57:00;101323.78;;;28.02;43.14
21520;BME280;10921;53.614;9.882;2022-08-21T09:59:46;101315.13;;;27.94;42.79
21520;BME280;10921;53.614;9.882;2022-08-21T10:02:29;101322.16;;;27.90;43.15
21520;BME280;10921;53.614;9.882;2022-08-21T10:05:01;101323.06;;;27.67;43.18
21520;BME280;10921;53.614;9.882;2022-08-21T10:07:31;101314.41;;;27.47;43.19
21520;BME280;10921;53.614;9.882;2022-08-21T10:13:08;101325.00;;;27.43;43.38
21520;BME280;10921;53.614;9.882;2022-08-21T10:18:41;101319.88;;;27.35;42.81
21520;BME280;10921;53.614;9.882;2022-08-21T10:21:22;101312.38;;;27.42;42.97
21520;BME280;10921;53.614;9.882;2022-08-21T10:24:09;101310.94;;;27.63;43.47
21520;BME280;10921;53.614;9.882;2022-08-21T10:27:16;101313.81;;;27.85;42.89
21520;BME280;10921;53.614;9.882;2022-08-21T10:29:59;101320.84;;;27.92;42.39
21520;BME280;10921;53.614;9.882;2022-08-21T10:32:38;101317.03;;;27.93;42.25
21520;BME280;10921;53.614;9.882;2022-08-21T10:40:34;101324.75;;;27.96;41.53
21520;BME280;10921;53.614;9.882;2022-08-21T10:43:34;101267.56;;;27.48;37.89
21520;BME280;10921;53.614;9.882;2022-08-21T10:51:46;101321.28;;;28.01;39.46
21520;BME280;10921;53.614;9.882;2022-08-21T10:54:40;101327.47;;;28.08;38.13
21520;BME280;10921;53.614;9.882;2022-08-21T10:57:27;101316.88;;;28.28;38.13
21520;BME280;10921;53.614;9.882;2022-08-21T11:00:10;101329.78;;;28.45;37.48
21520;BME280;10921;53.614;9.882;2022-08-21T11:02:52;101321.22;;;28.58;37.98
21520;BME280;10921;53.614;9.882;2022-08-21T11:08:06;101316.56;;;28.75;35.88
21520;BME280;10921;53.614;9.882;2022-08-21T11:10:45;101318.06;;;28.99;37.46
21520;BME280;10921;53.614;9.882;2022-08-21T11:13:38;101304.09;;;29.01;36.07
21520;BME280;10921;53.614;9.882;2022-08-21T11:16:23;101324.38;;;29.17;36.57
21520;BME280;10921;53.614;9.882;2022-08-21T11:18:59;101321.66;;;29.00;35.41
21520;BME280;10921;53.614;9.882;2022-08-21T11:24:03;101318.09;;;28.83;35.84
21520;BME280;10921;53.614;9.882;2022-08-21T11:29:16;101288.34;;;28.63;36.41
21520;BME280;10921;53.614;9.882;2022-08-21T11:37:48;101326.97;;;28.90;36.93
21520;BME280;10921;53.614;9.882;2022-08-21T11:43:31;101325.84;;;28.86;35.97
21520;BME280;10921;53.614;9.882;2022-08-21T11:46:17;101334.81;;;28.81;35.93
21520;BME280;10921;53.614;9.882;2022-08-21T11:51:32;101325.38;;;28.60;36.48
21520;BME280;10921;53.614;9.882;2022-08-21T11:54:08;101320.94;;;28.43;36.41
21520;BME280;10921;53.614;9.882;2022-08-21T11:56:41;101317.81;;;28.34;35.84
21520;BME280;10921;53.614;9.882;2022-08-21T11:59:13;101334.69;;;28.43;36.77
21520;BME280;10921;53.614;9.882;2022-08-21T12:01:44;101321.22;;;28.58;36.63
21520;BME280;10921;53.614;9.882;2022-08-21T12:04:28;101319.88;;;28.77;35.89
21520;BME280;10921;53.614;9.882;2022-08-21T12:06:56;101317.56;;;29.02;35.18
21520;BME280;10921;53.614;9.882;2022-08-21T12:12:13;101262.41;;;29.48;35.59
21520;BME280;10921;53.614;9.882;2022-08-21T12:14:50;101292.47;;;29.81;34.35
21520;BME280;10921;53.614;9.882;2022-08-21T12:17:23;101311.84;;;30.13;34.35
21520;BME280;10921;53.614;9.882;2022-08-21T12:20:02;101304.41;;;30.14;33.98
21520;BME280;10921;53.614;9.882;2022-08-21T12:22:41;101306.25;;;30.03;33.76
21520;BME280;10921;53.614;9.882;2022-08-21T12:25:11;101316.16;;;30.04;34.67
21520;BME280;10921;53.614;9.882;2022-08-21T12:27:50;101322.91;;;29.96;34.24
21520;BME280;10921;53.614;9.882;2022-08-21T12:30:35;101316.06;;;30.21;34.62
21520;BME280;10921;53.614;9.882;2022-08-21T12:33:09;101312.25;;;30.27;34.18
21520;BME280;10921;53.614;9.882;2022-08-21T12:35:44;101286.09;;;30.24;33.65
21520;BME280;10921;53.614;9.882;2022-08-21T12:38:29;101310.72;;;30.73;32.95
21520;BME280;10921;53.614;9.882;2022-08-21T12:41:09;101305.00;;;30.80;31.21
21520;BME280;10921;53.614;9.882;2022-08-21T12:43:50;101306.38;;;30.77;30.56
21520;BME280;10921;53.614;9.882;2022-08-21T12:46:21;101305.13;;;30.95;30.66
21520;BME280;10921;53.614;9.882;2022-08-21T12:48:52;101304.31;;;30.99;29.98
21520;BME280;10921;53.614;9.882;2022-08-21T12:51:32;101299.09;;;31.03;30.39
21520;BME280;10921;53.614;9.882;2022-08-21T12:53:59;101279.47;;;30.94;29.48
21520;BME280;10921;53.614;9.882;2022-08-21T12:56:30;101299.19;;;31.18;30.18
21520;BME280;10921;53.614;9.882;2022-08-21T12:59:03;101296.78;;;31.27;31.15
21520;BME280;10921;53.614;9.882;2022-08-21T13:01:38;101310.78;;;31.20;30.86
21520;BME280;10921;53.614;9.882;2022-08-21T13:04:13;101300.47;;;31.00;31.27
21520;BME280;10921;53.614;9.882;2022-08-21T13:06:43;101303.66;;;30.82;31.03
21520;BME280;10921;53.614;9.882;2022-08-21T13:09:14;101303.84;;;30.70;32.45
21520;BME280;10921;53.614;9.882;2022-08-21T13:11:44;101298.47;;;30.54;31.88
21520;BME280;10921;53.614;9.882;2022-08-21T13:14:30;101300.00;;;30.44;32.37
21520;BME280;10921;53.614;9.882;2022-08-21T13:16:59;101311.16;;;30.28;31.73
21520;BME280;10921;53.614;9.882;2022-08-21T13:19:26;101296.66;;;30.11;31.97
21520;BME280;10921;53.614;9.882;2022-08-21T13:21:55;101295.66;;;29.95;32.21
21520;BME280;10921;53.614;9.882;2022-08-21T13:24:26;101293.03;;;29.78;32.96
21520;BME280;10921;53.614;9.882;2022-08-21T13:27:25;101274.34;;;29.58;33.14
21520;BME280;10921;53.614;9.882;2022-08-21T13:32:30;101293.50;;;29.48;32.99
21520;BME280;10921;53.614;9.882;2022-08-21T13:34:58;101271.19;;;29.28;34.11
21520;BME280;10921;53.614;9.882;2022-08-21T13:37:26;101272.88;;;29.29;32.90
21520;BME280;10921;53.614;9.882;2022-08-21T13:39:55;101285.53;;;29.30;33.36
21520;BME280;10921;53.614;9.882;2022-08-21T13:42:21;101293.09;;;29.23;33.28
21520;BME280;10921;53.614;9.882;2022-08-21T13:44:52;101287.25;;;29.14;33.55
21520;BME280;10921;53.614;9.882;2022-08-21T13:47:18;101282.94;;;29.01;33.63
21520;BME280;10921;53.614;9.882;2022-08-21T13:49:46;101282.88;;;28.96;34.20
21520;BME280;10921;53.614;9.882;2022-08-21T13:52:17;101275.63;;;28.90;33.47
21520;BME280;10921;53.614;9.882;2022-08-21T13:54:54;101274.94;;;29.00;33.93
21520;BME280;10921;53.614;9.882;2022-08-21T13:57:27;101287.91;;;29.04;34.25
21520;BME280;10921;53.614;9.882;2022-08-21T14:02:41;101251.09;;;28.84;33.55
21520;BME280;10921;53.614;9.882;2022-08-21T14:05:21;101269.50;;;29.05;34.04